sensor_id;sensor_type;location;lat;lon;timestamp;pressure;altitude;pressure_sealevel;temperature;humidity
37304;BME280;23188;51.188;16.374;2022-09-12T00:03:35;100250.14;;;16.42;100.00
37304;BME280;23188;51.188;16.374;2022-09-12T00:07:37;100246.63;;;16.46;100.00
37304;BME280;23188;51.188;16.374;2022-09-12T00:11:42;100251.48;;;16.47;100.00
37304;BME280;23188;51.188;16.374;2022-09-12T00:15:44;100250.80;;;16.40;100.00
37304;BME280;23188;51.188;16.374;2022-09-12T00:19:45;100256.36;;;16.43;100.00
37304;BME280;23188;51.188;16.374;2022-09-12T00:23:47;100261.55;;;16.36;100.00
37304;BME280;23188;51.188;16.374;2022-09-12T00:27:49;100257.84;;;16.33;100.00
37304;BME280;23188;51.188;16.374;2022-09-12T00:31:51;100261.88;;;16.37;100.00
37304;BME280;23188;51.188;16.374;2022-09-12T00:35:52;100260.53;;;16.33;100.00
37304;BME280;23188;51.188;16.374;2022-09-12T00:39:54;100262.21;;;16.34;100.00
37304;BME280;23188;51.188;16.374;2022-09-12T00:44:01;100261.55;;;16.36;100.00
37304;BME280;23188;51.188;16.374;2022-09-12T00:48:07;100262.36;;;16.33;100.00
37304;BME280;23188;51.188;16.374;2022-09-12T00:52:13;100272.95;;;16.34;100.00
37304;BME280;23188;51.188;16.374;2022-09-12T00:56:20;100265.56;;;16.36;100.00
37304;BME280;23188;51.188;16.374;2022-09-12T01:00:24;100269.59;;;16.32;100.00
37304;BME280;23188;51.188;16.374;2022-09-12T01:04:28;100269.75;;;16.35;100.00
37304;BME280;23188;51.188;16.374;2022-09-12T01:08:32;100267.39;;;16.36;100.00
37304;BME280;23188;51.188;16.374;2022-09-12T01:12:36;100262.03;;;16.36;100.00
37304;BME280;23188;51.188;16.374;2022-09-12T01:16:41;100256.32;;;16.31;100.00
37304;BME280;23188;51.188;16.374;2022-09-12T01:20:53;100254.30;;;16.28;100.00
37304;BME280;23188;51.188;16.374;2022-09-12T01:38:34;100257.19;;;16.48;100.00
37304;BME280;23188;51.188;16.374;2022-09-12T01:55:32;100258.00;;;16.32;100.00
37304;BME280;23188;51.188;16.374;2022-09-12T01:59:44;100264.85;;;16.22;100.00
37304;BME280;23188;51.188;16.374;2022-09-12T02:04:02;100265.85;;;16.17;100.00
37304;BME280;23188;51.188;16.374;2022-09-12T02:08:19;100263.33;;;16.19;100.00
37304;BME280;23188;51.188;16.374;2022-09-12T02:12:28;100265.85;;;16.17;100.00
37304;BME280;23188;51.188;16.374;2022-09-12T02:16:47;100261.49;;;16.20;100.00
37304;BME280;23188;51.188;16.374;2022-09-12T02:20:51;100260.14;;;16.11;100.00
37304;BME280;23188;51.188;16.374;2022-09-12T02:24:57;100269.16;;;16.06;100.00
37304;BME280;23188;51.188;16.374;2022-09-12T02:29:00;100260.42;;;16.00;100.00
37304;BME280;23188;51.188;16.374;2022-09-12T02:42:14;100246.34;;;15.98;100.00
37304;BME280;23188;51.188;16.374;2022-09-12T02:46:25;100243.47;;;15.99;100.00
37304;BME280;23188;51.188;16.374;2022-09-12T02:50:29;100248.67;;;15.93;100.00
37304;BME280;23188;51.188;16.374;2022-09-12T02:54:31;100238.43;;;15.92;100.00
37304;BME280;23188;51.188;16.374;2022-09-12T02:58:34;100238.52;;;15.78;100.00
37304;BME280;23188;51.188;16.374;2022-09-12T03:16:12;100253.16;;;15.53;100.00
37304;BME280;23188;51.188;16.374;2022-09-12T03:29:06;100250.06;;;15.18;100.00
37304;BME280;23188;51.188;16.374;2022-09-12T03:33:18;100251.84;;;15.09;100.00
37304;BME280;23188;51.188;16.374;2022-09-12T03:37:20;100252.06;;;15.16;100.00
37304;BME280;23188;51.188;16.374;2022-09-12T03:41:21;100254.00;;;15.32;100.00
37304;BME280;23188;51.188;16.374;2022-09-12T03:45:23;100252.09;;;15.46;100.00
37304;BME280;23188;51.188;16.374;2022-09-12T03:49:24;100261.11;;;15.41;100.00
37304;BME280;23188;51.188;16.374;2022-09-12T03:53:26;100261.54;;;15.28;100.00
37304;BME280;23188;51.188;16.374;2022-09-12T03:57:27;100266.14;;;15.18;100.00
37304;BME280;23188;51.188;16.374;2022-09-12T04:01:29;100257.10;;;15.19;100.00
37304;BME280;23188;51.188;16.374;2022-09-12T04:05:31;100266.48;;;15.19;100.00
37304;BME280;23188;51.188;16.374;2022-09-12T04:09:32;100268.50;;;15.21;100.00
37304;BME280;23188;51.188;16.374;2022-09-12T04:13:35;100265.31;;;15.17;100.00
37304;BME280;23188;51.188;16.374;2022-09-12T04:17:37;100269.99;;;15.15;100.00
37304;BME280;23188;51.188;16.374;2022-09-12T04:21:39;100272.02;;;15.17;100.00
37304;BME280;23188;51.188;16.374;2022-09-12T04:25:41;100274.72;;;15.21;100.00
37304;BME280;23188;51.188;16.374;2022-09-12T04:29:42;100269.41;;;15.30;100.00
37304;BME280;23188;51.188;16.374;2022-09-12T04:33:44;100273.48;;;15.34;100.00
37304;BME280;23188;51.188;16.374;2022-09-12T04:37:46;100273.17;;;15.41;100.00
37304;BME280;23188;51.188;16.374;2022-09-12T04:41:48;100272.52;;;15.43;100.00
37304;BME280;23188;51.188;16.374;2022-09-12T04:45:49;100282.23;;;15.44;100.00
37304;BME280;23188;51.188;16.374;2022-09-12T04:49:51;100278.23;;;15.48;100.00
37304;BME280;23188;51.188;16.374;2022-09-12T04:53:57;100274.87;;;15.46;100.00
37304;BME280;23188;51.188;16.374;2022-09-12T04:58:01;100272.55;;;15.51;100.00
37304;BME280;23188;51.188;16.374;2022-09-12T05:02:02;100276.23;;;15.50;100.00
37304;BME280;23188;51.188;16.374;2022-09-12T05:06:05;100275.88;;;15.45;100.00
37304;BME280;23188;51.188;16.374;2022-09-12T05:10:08;100276.19;;;15.42;100.00
37304;BME280;23188;51.188;16.374;2022-09-12T05:14:10;100285.79;;;15.49;100.00
37304;BME280;23188;51.188;16.374;2022-09-12T05:18:12;100288.34;;;15.54;100.00
37304;BME280;23188;51.188;16.374;2022-09-12T05:22:13;100285.34;;;15.58;100.00
37304;BME280;23188;51.188;16.374;2022-09-12T05:26:15;100292.06;;;15.62;100.00
37304;BME280;23188;51.188;16.374;2022-09-12T05:30:17;100300.78;;;15.64;100.00
37304;BME280;23188;51.188;16.374;2022-09-12T05:34:19;100302.42;;;15.56;100.00
37304;BME280;23188;51.188;16.374;2022-09-12T05:38:21;100300.36;;;15.50;100.00
37304;BME280;23188;51.188;16.374;2022-09-12T05:42:29;100307.22;;;15.45;100.00
37304;BME280;23188;51.188;16.374;2022-09-12T05:46:35;100305.89;;;15.49;100.00
37304;BME280;23188;51.188;16.374;2022-09-12T05:50:39;100312.91;;;15.46;100.00
37304;BME280;23188;51.188;16.374;2022-09-12T05:54:41;100319.44;;;15.47;100.00
37304;BME280;23188;51.188;16.374;2022-09-12T05:58:46;100322.64;;;15.47;100.00
37304;BME280;23188;51.188;16.374;2022-09-12T06:02:51;100318.19;;;15.60;100.00
37304;BME280;23188;51.188;16.374;2022-09-12T06:06:53;100318.66;;;15.55;100.00
37304;BME280;23188;51.188;16.374;2022-09-12T06:10:57;100332.58;;;15.54;100.00
37304;BME280;23188;51.188;16.374;2022-09-12T06:15:00;100330.58;;;15.56;100.00
37304;BME280;23188;51.188;16.374;2022-09-12T06:36:31;100328.51;;;16.03;100.00
37304;BME280;23188;51.188;16.374;2022-09-12T06:40:39;100336.08;;;16.04;100.00
37304;BME280;23188;51.188;16.374;2022-09-12T06:44:47;100339.30;;;16.16;100.00
37304;BME280;23188;51.188;16.374;2022-09-12T06:48:48;100337.45;;;16.16;100.00
37304;BME280;23188;51.188;16.374;2022-09-12T06:52:50;100334.50;;;16.36;100.00
37304;BME280;23188;51.188;16.374;2022-09-12T06:56:51;100339.20;;;16.38;100.00
37304;BME280;23188;51.188;16.374;2022-09-12T07:01:01;100336.61;;;16.63;100.00
37304;BME280;23188;51.188;16.374;2022-09-12T07:05:04;100335.64;;;16.93;100.00
37304;BME280;23188;51.188;16.374;2022-09-12T07:09:12;100338.03;;;17.29;100.00
37304;BME280;23188;51.188;16.374;2022-09-12T07:13:16;100339.88;;;17.37;100.00
37304;BME280;23188;51.188;16.374;2022-09-12T07:17:17;100340.88;;;17.40;100.00
37304;BME280;23188;51.188;16.374;2022-09-12T07:21:18;100355.51;;;17.46;100.00
37304;BME280;23188;51.188;16.374;2022-09-12T07:25:20;100353.50;;;17.44;100.00
37304;BME280;23188;51.188;16.374;2022-09-12T07:29:21;100358.03;;;17.35;100.00
37304;BME280;23188;51.188;16.374;2022-09-12T07:33:25;100356.17;;;17.48;100.00
37304;BME280;23188;51.188;16.374;2022-09-12T07:37:29;100357.70;;;17.34;100.00
37304;BME280;23188;51.188;16.374;2022-09-12T07:41:32;100360.89;;;17.41;100.00
37304;BME280;23188;51.188;16.374;2022-09-12T07:45:33;100359.53;;;17.37;100.00
37304;BME280;23188;51.188;16.374;2022-09-12T07:49:35;100363.89;;;17.38;100.00
37304;BME280;23188;51.188;16.374;2022-09-12T07:53:39;100368.46;;;17.30;100.00
37304;BME280;23188;51.188;16.374;2022-09-12T07:57:41;100363.75;;;17.32;100.00
37304;BME280;23188;51.188;16.374;2022-09-12T08:01:43;100372.99;;;17.21;100.00
37304;BME280;23188;51.188;16.374;2022-09-12T08:05:44;100369.97;;;17.24;100.00
37304;BME280;23188;51.188;16.374;2022-09-12T08:09:46;100371.46;;;17.43;100.00
37304;BME280;23188;51.188;16.374;2022-09-12T08:13:47;100370.13;;;17.39;100.00
37304;BME280;23188;51.188;16.374;2022-09-12T08:30:35;100378.27;;;18.12;100.00
37304;BME280;23188;51.188;16.374;2022-09-12T08:34:36;100372.53;;;18.19;100.00
37304;BME280;23188;51.188;16.374;2022-09-12T08:38:40;100371.30;;;18.66;100.00
37304;BME280;23188;51.188;16.374;2022-09-12T08:51:27;100370.53;;;19.12;96.80
37304;BME280;23188;51.188;16.374;2022-09-12T08:55:39;100366.70;;;19.25;98.21
37304;BME280;23188;51.188;16.374;2022-09-12T08:59:44;100369.07;;;19.24;97.48
37304;BME280;23188;51.188;16.374;2022-09-12T09:08:29;100365.16;;;19.50;95.83
37304;BME280;23188;51.188;16.374;2022-09-12T09:12:57;100359.28;;;19.47;97.12
37304;BME280;23188;51.188;16.374;2022-09-12T09:17:14;100355.30;;;19.58;96.54
37304;BME280;23188;51.188;16.374;2022-09-12T09:29:55;100357.30;;;19.79;90.12
37304;BME280;23188;51.188;16.374;2022-09-12T09:33:58;100358.39;;;19.84;89.72
37304;BME280;23188;51.188;16.374;2022-09-12T09:38:22;100351.55;;;19.97;86.18
37304;BME280;23188;51.188;16.374;2022-09-12T09:42:43;100351.17;;;20.00;84.25
37304;BME280;23188;51.188;16.374;2022-09-12T09:46:54;100358.94;;;20.14;84.25
37304;BME280;23188;51.188;16.374;2022-09-12T09:50:59;100354.63;;;19.94;87.25
37304;BME280;23188;51.188;16.374;2022-09-12T09:55:04;100347.77;;;20.02;88.77
37304;BME280;23188;51.188;16.374;2022-09-12T09:59:14;100350.34;;;20.15;83.87
37304;BME280;23188;51.188;16.374;2022-09-12T10:03:25;100345.91;;;20.44;83.45
37304;BME280;23188;51.188;16.374;2022-09-12T10:07:29;100342.11;;;20.75;81.56
37304;BME280;23188;51.188;16.374;2022-09-12T10:11:31;100334.34;;;21.08;81.15
37304;BME280;23188;51.188;16.374;2022-09-12T10:15:33;100337.23;;;20.74;83.32
37304;BME280;23188;51.188;16.374;2022-09-12T10:19:37;100336.13;;;20.79;85.11
37304;BME280;23188;51.188;16.374;2022-09-12T10:23:41;100334.42;;;20.93;82.32
37304;BME280;23188;51.188;16.374;2022-09-12T10:27:51;100335.06;;;20.95;76.49
37304;BME280;23188;51.188;16.374;2022-09-12T10:31:57;100330.09;;;21.21;77.95
37304;BME280;23188;51.188;16.374;2022-09-12T10:36:01;100323.08;;;21.26;78.44
37304;BME280;23188;51.188;16.374;2022-09-12T10:40:05;100317.22;;;21.51;77.17
37304;BME280;23188;51.188;16.374;2022-09-12T10:44:22;100317.30;;;21.47;75.56
37304;BME280;23188;51.188;16.374;2022-09-12T10:48:30;100324.75;;;21.56;74.95
37304;BME280;23188;51.188;16.374;2022-09-12T10:52:32;100328.41;;;21.70;78.06
37304;BME280;23188;51.188;16.374;2022-09-12T11:10:12;100310.85;;;21.48;73.23
37304;BME280;23188;51.188;16.374;2022-09-12T11:14:40;100319.97;;;21.69;75.33
37304;BME280;23188;51.188;16.374;2022-09-12T11:27:58;100315.87;;;21.51;75.49
37304;BME280;23188;51.188;16.374;2022-09-12T11:36:48;100309.81;;;21.95;74.97
37304;BME280;23188;51.188;16.374;2022-09-12T11:40:57;100308.31;;;22.10;72.78
37304;BME280;23188;51.188;16.374;2022-09-12T11:45:12;100305.42;;;22.19;73.00
37304;BME280;23188;51.188;16.374;2022-09-12T11:49:19;100303.02;;;22.20;71.44
37304;BME280;23188;51.188;16.374;2022-09-12T11:53:25;100304.81;;;21.99;73.66
37304;BME280;23188;51.188;16.374;2022-09-12T11:57:43;100303.77;;;21.76;75.88
37304;BME280;23188;51.188;16.374;2022-09-12T12:01:49;100298.55;;;21.74;73.81
37304;BME280;23188;51.188;16.374;2022-09-12T12:14:48;100303.19;;;21.23;74.05
37304;BME280;23188;51.188;16.374;2022-09-12T12:18:57;100308.86;;;21.18;75.30
37304;BME280;23188;51.188;16.374;2022-09-12T12:22:57;100303.96;;;21.06;75.42
37304;BME280;23188;51.188;16.374;2022-09-12T12:27:04;100303.90;;;21.00;75.92
37304;BME280;23188;51.188;16.374;2022-09-12T12:31:23;100298.95;;;20.92;77.33
37304;BME280;23188;51.188;16.374;2022-09-12T12:35:43;100299.74;;;20.86;75.06
37304;BME280;23188;51.188;16.374;2022-09-12T12:44:45;100304.05;;;20.91;74.55
37304;BME280;23188;51.188;16.374;2022-09-12T12:48:14;100293.08;;;21.00;74.53
37304;BME280;23188;51.188;16.374;2022-09-12T12:52:16;100291.73;;;21.00;74.21
37304;BME280;23188;51.188;16.374;2022-09-12T12:56:28;100289.42;;;20.96;75.20
37304;BME280;23188;51.188;16.374;2022-09-12T13:00:40;100292.84;;;20.94;75.64
37304;BME280;23188;51.188;16.374;2022-09-12T13:04:43;100285.89;;;20.96;75.30
37304;BME280;23188;51.188;16.374;2022-09-12T13:08:54;100284.58;;;21.03;75.15
37304;BME280;23188;51.188;16.374;2022-09-12T13:12:57;100283.75;;;21.02;76.20
37304;BME280;23188;51.188;16.374;2022-09-12T13:17:05;100281.23;;;21.01;76.49
37304;BME280;23188;51.188;16.374;2022-09-12T13:25:31;100276.44;;;20.96;76.76
37304;BME280;23188;51.188;16.374;2022-09-12T13:29:34;100276.54;;;20.98;75.90
37304;BME280;23188;51.188;16.374;2022-09-12T13:33:39;100278.50;;;20.94;74.87
37304;BME280;23188;51.188;16.374;2022-09-12T13:46:38;100271.09;;;21.20;76.62
37304;BME280;23188;51.188;16.374;2022-09-12T13:50:45;100267.54;;;21.31;74.26
37304;BME280;23188;51.188;16.374;2022-09-12T13:54:54;100267.36;;;21.21;73.08
37304;BME280;23188;51.188;16.374;2022-09-12T13:58:59;100257.47;;;21.18;74.84
37304;BME280;23188;51.188;16.374;2022-09-12T14:03:13;100259.19;;;21.25;74.91
37304;BME280;23188;51.188;16.374;2022-09-12T14:12:00;100256.73;;;21.48;76.50
37304;BME280;23188;51.188;16.374;2022-09-12T14:16:03;100255.61;;;21.53;74.66
37304;BME280;23188;51.188;16.374;2022-09-12T14:20:13;100252.62;;;21.42;74.69
37304;BME280;23188;51.188;16.374;2022-09-12T14:24:16;100252.27;;;21.51;76.11
37304;BME280;23188;51.188;16.374;2022-09-12T14:28:18;100248.80;;;21.47;76.44
37304;BME280;23188;51.188;16.374;2022-09-12T14:32:22;100251.55;;;21.36;77.16
37304;BME280;23188;51.188;16.374;2022-09-12T14:36:38;100245.55;;;21.40;79.12
37304;BME280;23188;51.188;16.374;2022-09-12T14:40:47;100241.85;;;21.48;76.41
37304;BME280;23188;51.188;16.374;2022-09-12T14:44:56;100241.05;;;21.54;77.22
37304;BME280;23188;51.188;16.374;2022-09-12T14:49:19;100243.83;;;21.33;76.39
37304;BME280;23188;51.188;16.374;2022-09-12T14:53:31;100243.36;;;21.22;76.78
37304;BME280;23188;51.188;16.374;2022-09-12T14:57:39;100237.16;;;21.29;77.89
37304;BME280;23188;51.188;16.374;2022-09-12T15:01:40;100242.88;;;21.30;77.81
37304;BME280;23188;51.188;16.374;2022-09-12T15:05:49;100236.62;;;21.29;78.27
37304;BME280;23188;51.188;16.374;2022-09-12T15:09:51;100234.40;;;21.22;75.74
37304;BME280;23188;51.188;16.374;2022-09-12T15:13:52;100236.11;;;21.30;77.25
37304;BME280;23188;51.188;16.374;2022-09-12T15:17:54;100240.54;;;21.37;77.80
37304;BME280;23188;51.188;16.374;2022-09-12T15:21:56;100236.84;;;21.45;75.88
37304;BME280;23188;51.188;16.374;2022-09-12T15:25:58;100235.85;;;21.53;75.97
37304;BME280;23188;51.188;16.374;2022-09-12T15:29:59;100235.63;;;21.54;74.83
37304;BME280;23188;51.188;16.374;2022-09-12T15:34:01;100230.22;;;21.54;75.72
37304;BME280;23188;51.188;16.374;2022-09-12T15:38:03;100235.17;;;21.44;75.73
37304;BME280;23188;51.188;16.374;2022-09-12T15:42:05;100237.87;;;21.26;76.78
37304;BME280;23188;51.188;16.374;2022-09-12T15:46:09;100240.66;;;21.22;77.39
37304;BME280;23188;51.188;16.374;2022-09-12T15:50:12;100236.97;;;21.19;77.19
37304;BME280;23188;51.188;16.374;2022-09-12T15:54:14;100242.06;;;21.18;76.04
37304;BME280;23188;51.188;16.374;2022-09-12T15:58:17;100235.25;;;21.22;76.09
37304;BME280;23188;51.188;16.374;2022-09-12T16:02:18;100233.13;;;21.18;76.82
37304;BME280;23188;51.188;16.374;2022-09-12T16:06:19;100235.54;;;21.06;77.43
37304;BME280;23188;51.188;16.374;2022-09-12T16:10:24;100228.51;;;21.01;75.72
37304;BME280;23188;51.188;16.374;2022-09-12T16:14:27;100227.81;;;20.92;77.62
37304;BME280;23188;51.188;16.374;2022-09-12T16:18:29;100219.59;;;20.67;75.82
37304;BME280;23188;51.188;16.374;2022-09-12T16:22:30;100221.13;;;20.55;80.55
37304;BME280;23188;51.188;16.374;2022-09-12T16:26:32;100213.88;;;20.45;83.80
37304;BME280;23188;51.188;16.374;2022-09-12T16:30:34;100215.27;;;20.30;83.42
37304;BME280;23188;51.188;16.374;2022-09-12T16:34:36;100212.81;;;20.24;83.35
37304;BME280;23188;51.188;16.374;2022-09-12T16:38:45;100208.08;;;20.26;85.31
37304;BME280;23188;51.188;16.374;2022-09-12T16:42:48;100208.58;;;20.25;86.02
37304;BME280;23188;51.188;16.374;2022-09-12T16:46:49;100202.72;;;20.22;86.97
37304;BME280;23188;51.188;16.374;2022-09-12T16:51:00;100206.13;;;20.20;87.92
37304;BME280;23188;51.188;16.374;2022-09-12T16:55:03;100206.91;;;20.24;89.09
37304;BME280;23188;51.188;16.374;2022-09-12T16:59:06;100201.34;;;20.26;90.44
37304;BME280;23188;51.188;16.374;2022-09-12T17:03:09;100190.56;;;20.22;89.99
37304;BME280;23188;51.188;16.374;2022-09-12T17:07:11;100187.69;;;20.23;89.99
37304;BME280;23188;51.188;16.374;2022-09-12T17:11:14;100185.80;;;20.24;90.67
37304;BME280;23188;51.188;16.374;2022-09-12T17:15:22;100182.67;;;20.20;90.62
37304;BME280;23188;51.188;16.374;2022-09-12T17:19:25;100178.55;;;20.14;90.09
37304;BME280;23188;51.188;16.374;2022-09-12T17:23:28;100182.28;;;20.12;89.74
37304;BME280;23188;51.188;16.374;2022-09-12T17:27:34;100182.92;;;20.15;89.15
37304;BME280;23188;51.188;16.374;2022-09-12T17:31:35;100189.20;;;20.11;88.35
37304;BME280;23188;51.188;16.374;2022-09-12T17:40:11;100189.09;;;20.08;89.10
37304;BME280;23188;51.188;16.374;2022-09-12T17:44:16;100191.95;;;19.96;89.80
37304;BME280;23188;51.188;16.374;2022-09-12T17:48:24;100196.42;;;19.89;89.60
37304;BME280;23188;51.188;16.374;2022-09-12T17:52:25;100192.94;;;19.84;89.69
37304;BME280;23188;51.188;16.374;2022-09-12T17:56:29;100201.97;;;19.76;90.18
37304;BME280;23188;51.188;16.374;2022-09-12T18:00:32;100201.71;;;19.71;91.10
37304;BME280;23188;51.188;16.374;2022-09-12T18:04:54;100202.09;;;19.68;91.62
37304;BME280;23188;51.188;16.374;2022-09-12T18:09:00;100198.92;;;19.64;91.80
37304;BME280;23188;51.188;16.374;2022-09-12T18:13:05;100202.81;;;19.62;90.82
37304;BME280;23188;51.188;16.374;2022-09-12T18:17:07;100211.67;;;19.55;90.00
37304;BME280;23188;51.188;16.374;2022-09-12T18:21:11;100212.98;;;19.45;89.32
37304;BME280;23188;51.188;16.374;2022-09-12T18:25:13;100213.75;;;19.34;89.12
37304;BME280;23188;51.188;16.374;2022-09-12T18:29:14;100214.02;;;19.24;89.14
37304;BME280;23188;51.188;16.374;2022-09-12T18:33:17;100201.52;;;19.12;89.25
37304;BME280;23188;51.188;16.374;2022-09-12T18:37:26;100203.45;;;19.04;89.31
37304;BME280;23188;51.188;16.374;2022-09-12T18:41:27;100203.88;;;18.92;89.32
37304;BME280;23188;51.188;16.374;2022-09-12T18:45:29;100203.28;;;18.82;88.47
37304;BME280;23188;51.188;16.374;2022-09-12T18:49:30;100203.37;;;18.74;88.40
37304;BME280;23188;51.188;16.374;2022-09-12T18:53:33;100207.99;;;18.65;88.79
37304;BME280;23188;51.188;16.374;2022-09-12T18:57:41;100212.28;;;18.55;89.60
37304;BME280;23188;51.188;16.374;2022-09-12T19:01:43;100207.45;;;18.46;89.78
37304;BME280;23188;51.188;16.374;2022-09-12T19:05:44;100210.06;;;18.35;90.01
37304;BME280;23188;51.188;16.374;2022-09-12T19:09:45;100210.27;;;18.30;90.32
37304;BME280;23188;51.188;16.374;2022-09-12T19:13:48;100203.37;;;18.27;90.79
37304;BME280;23188;51.188;16.374;2022-09-12T19:17:50;100201.73;;;18.22;90.87
37304;BME280;23188;51.188;16.374;2022-09-12T19:21:52;100197.09;;;18.11;91.10
37304;BME280;23188;51.188;16.374;2022-09-12T19:25:58;100201.82;;;18.01;91.68
37304;BME280;23188;51.188;16.374;2022-09-12T19:30:16;100200.66;;;17.95;92.32
37304;BME280;23188;51.188;16.374;2022-09-12T19:34:18;100200.20;;;17.88;93.10
37304;BME280;23188;51.188;16.374;2022-09-12T19:38:23;100195.53;;;17.81;93.28
37304;BME280;23188;51.188;16.374;2022-09-12T19:42:24;100201.62;;;17.75;93.04
37304;BME280;23188;51.188;16.374;2022-09-12T19:46:26;100200.47;;;17.69;93.73
37304;BME280;23188;51.188;16.374;2022-09-12T19:50:30;100196.64;;;17.60;93.44
37304;BME280;23188;51.188;16.374;2022-09-12T19:54:32;100194.67;;;17.45;94.76
37304;BME280;23188;51.188;16.374;2022-09-12T19:58:39;100194.22;;;17.29;93.29
37304;BME280;23188;51.188;16.374;2022-09-12T20:02:49;100188.72;;;17.14;93.84
37304;BME280;23188;51.188;16.374;2022-09-12T20:06:51;100188.73;;;17.02;94.60
37304;BME280;23188;51.188;16.374;2022-09-12T20:10:54;100185.70;;;16.92;95.30
37304;BME280;23188;51.188;16.374;2022-09-12T20:14:56;100186.72;;;16.79;95.24
37304;BME280;23188;51.188;16.374;2022-09-12T20:23:31;100175.30;;;16.48;97.63
37304;BME280;23188;51.188;16.374;2022-09-12T20:27:32;100176.50;;;16.41;100.00
37304;BME280;23188;51.188;16.374;2022-09-12T20:31:35;100171.28;;;16.39;100.00
37304;BME280;23188;51.188;16.374;2022-09-12T20:35:38;100174.30;;;16.45;100.00
37304;BME280;23188;51.188;16.374;2022-09-12T20:39:39;100176.31;;;16.47;100.00
37304;BME280;23188;51.188;16.374;2022-09-12T20:43:56;100172.61;;;16.48;100.00
37304;BME280;23188;51.188;16.374;2022-09-12T20:47:57;100171.27;;;16.48;100.00
37304;BME280;23188;51.188;16.374;2022-09-12T20:52:10;100171.30;;;16.56;100.00
37304;BME280;23188;51.188;16.374;2022-09-12T20:56:11;100174.64;;;16.62;100.00
37304;BME280;23188;51.188;16.374;2022-09-12T21:00:14;100174.30;;;16.65;100.00
37304;BME280;23188;51.188;16.374;2022-09-12T21:04:17;100174.96;;;16.67;100.00
37304;BME280;23188;51.188;16.374;2022-09-12T21:08:19;100172.13;;;16.69;100.00
37304;BME280;23188;51.188;16.374;2022-09-12T21:12:20;100167.91;;;16.66;99.53
37304;BME280;23188;51.188;16.374;2022-09-12T21:16:31;100169.94;;;16.64;99.26
37304;BME280;23188;51.188;16.374;2022-09-12T21:20:34;100169.59;;;16.63;99.57
37304;BME280;23188;51.188;16.374;2022-09-12T21:24:35;100164.23;;;16.59;98.88
37304;BME280;23188;51.188;16.374;2022-09-12T21:28:37;100168.27;;;16.55;98.26
37304;BME280;23188;51.188;16.374;2022-09-12T21:32:38;100178.32;;;16.49;98.20
37304;BME280;23188;51.188;16.374;2022-09-12T21:36:40;100172.28;;;16.42;98.25
37304;BME280;23188;51.188;16.374;2022-09-12T21:40:42;100162.90;;;16.34;97.90
37304;BME280;23188;51.188;16.374;2022-09-12T21:44:43;100167.75;;;16.31;98.24
37304;BME280;23188;51.188;16.374;2022-09-12T21:48:45;100158.02;;;16.25;98.33
37304;BME280;23188;51.188;16.374;2022-09-12T21:52:46;100160.19;;;16.22;98.55
37304;BME280;23188;51.188;16.374;2022-09-12T21:56:48;100161.88;;;16.19;98.65
37304;BME280;23188;51.188;16.374;2022-09-12T22:00:49;100153.97;;;16.17;98.66
37304;BME280;23188;51.188;16.374;2022-09-12T22:09:24;100145.25;;;16.15;98.27
37304;BME280;23188;51.188;16.374;2022-09-12T22:13:25;100147.60;;;16.10;98.29
37304;BME280;23188;51.188;16.374;2022-09-12T22:17:38;100149.43;;;16.05;98.56
37304;BME280;23188;51.188;16.374;2022-09-12T22:21:39;100147.75;;;16.04;99.13
37304;BME280;23188;51.188;16.374;2022-09-12T22:25:42;100140.89;;;16.02;99.25
37304;BME280;23188;51.188;16.374;2022-09-12T22:29:44;100142.05;;;15.99;98.63
37304;BME280;23188;51.188;16.374;2022-09-12T22:33:48;100137.95;;;15.82;98.72
37304;BME280;23188;51.188;16.374;2022-09-12T22:37:51;100139.29;;;15.74;99.12
37304;BME280;23188;51.188;16.374;2022-09-12T22:41:52;100132.88;;;15.71;99.23
37304;BME280;23188;51.188;16.374;2022-09-12T22:45:53;100132.21;;;15.69;99.26
37304;BME280;23188;51.188;16.374;2022-09-12T22:49:54;100130.72;;;15.66;99.16
37304;BME280;23188;51.188;16.374;2022-09-12T22:53:56;100127.36;;;15.64;98.89
37304;BME280;23188;51.188;16.374;2022-09-12T22:57:58;100124.48;;;15.58;98.90
37304;BME280;23188;51.188;16.374;2022-09-12T23:01:59;100118.60;;;15.54;99.32
37304;BME280;23188;51.188;16.374;2022-09-12T23:06:00;100114.23;;;15.49;98.50
37304;BME280;23188;51.188;16.374;2022-09-12T23:10:10;100110.03;;;15.46;99.03
37304;BME280;23188;51.188;16.374;2022-09-12T23:14:11;100108.16;;;15.42;99.26
37304;BME280;23188;51.188;16.374;2022-09-12T23:18:12;100104.98;;;15.35;99.40
37304;BME280;23188;51.188;16.374;2022-09-12T23:22:14;100100.05;;;15.22;99.94
37304;BME280;23188;51.188;16.374;2022-09-12T23:26:20;100101.09;;;15.25;100.00
37304;BME280;23188;51.188;16.374;2022-09-12T23:30:24;100096.88;;;15.22;100.00
37304;BME280;23188;51.188;16.374;2022-09-12T23:34:25;100097.20;;;15.19;100.00
37304;BME280;23188;51.188;16.374;2022-09-12T23:38:34;100099.55;;;15.18;100.00
37304;BME280;23188;51.188;16.374;2022-09-12T23:42:36;100095.54;;;15.22;100.00
37304;BME280;23188;51.188;16.374;2022-09-12T23:46:37;100097.55;;;15.20;100.00
37304;BME280;23188;51.188;16.374;2022-09-12T23:50:38;100084.83;;;15.22;99.72
37304;BME280;23188;51.188;16.374;2022-09-12T23:54:39;100077.94;;;15.20;99.32
37304;BME280;23188;51.188;16.374;2022-09-12T23:58:41;100075.05;;;15.13;99.02
